Time;durP1;ratioP1;P1;durP2;ratioP2;P2;SDS_P1;SDS_P2;PMS_P1;PMS_P2;Temp;Humidity;BMP_temperature;BMP_pressure;BME280_temperature;BME280_humidity;BME280_pressure;Samples;Min_cycle;Max_cycle;Signal;HPM_P1;HPM_P2
2023/08/24 00:00:52;;;;;;;;;;;;;;;21.60;53.28;100759.28;4946004;28;6926;-71
2023/08/24 00:03:17;;;;;;;;;;;;;;;21.58;53.40;100750.59;4954237;28;6856;-71
2023/08/24 00:05:43;;;;;;;;;;;;;;;21.58;53.40;100745.38;4961514;28;6792;-71
2023/08/24 00:08:09;;;;;;;;;;;;;;;21.57;53.27;100751.47;4972675;28;7217;-71
2023/08/24 00:10:36;;;;;;;;;;;;;;;21.54;53.37;100751.44;4948725;28;6963;-71
2023/08/24 00:13:02;;;;;;;;;;;;;;;21.53;53.29;100747.06;4946021;28;7007;-70
2023/08/24 00:15:28;;;;;;;;;;;;;;;21.53;53.59;100752.28;4966823;28;7161;-71
2023/08/24 00:17:53;;;;;;;;;;;;;;;21.53;53.59;100745.34;4961934;28;6960;-70
2023/08/24 00:20:19;;;;;;;;;;;;;;;21.53;53.48;100739.25;4946688;28;6975;-71
2023/08/24 00:22:46;;;;;;;;;;;;;;;21.53;53.40;100729.69;4977558;28;6776;-70
2023/08/24 00:25:11;;;;;;;;;;;;;;;21.55;53.61;100734.94;4942390;28;6816;-71
2023/08/24 00:27:38;;;;;;;;;;;;;;;21.57;53.90;100725.38;4941830;28;6800;-71
2023/08/24 00:30:06;;;;;;;;;;;;;;;21.61;54.04;100719.31;4942770;28;6831;-70
2023/08/24 00:32:34;;;;;;;;;;;;;;;21.64;53.92;100715.00;4976088;28;6875;-71
2023/08/24 00:35:04;;;;;;;;;;;;;;;21.72;53.82;100707.25;4975299;28;6824;-70
2023/08/24 00:37:30;;;;;;;;;;;;;;;21.78;53.74;100707.31;4961314;28;6823;-71
2023/08/24 00:39:55;;;;;;;;;;;;;;;21.82;53.51;100704.69;4941829;28;7181;-71
2023/08/24 00:42:22;;;;;;;;;;;;;;;21.84;53.87;100708.22;4946060;28;6974;-71
2023/08/24 00:44:48;;;;;;;;;;;;;;;21.80;53.30;100706.44;4939346;28;7125;-71
2023/08/24 00:47:14;;;;;;;;;;;;;;;21.75;53.65;100709.00;4955034;28;6808;-71
2023/08/24 00:49:40;;;;;;;;;;;;;;;21.69;53.61;100709.84;4941594;28;8065;-71
2023/08/24 00:52:05;;;;;;;;;;;;;;;21.63;53.63;100709.75;4940650;28;7409;-71
2023/08/24 00:54:31;;;;;;;;;;;;;;;21.57;53.64;100709.72;4959775;28;6859;-71
2023/08/24 00:56:57;;;;;;;;;;;;;;;21.52;54.09;100712.31;4977464;28;6859;-71
2023/08/24 00:59:22;;;;;;;;;;;;;;;21.46;54.17;100714.84;4961384;28;6921;-71
2023/08/24 01:01:48;;;;;;;;;;;;;;;21.41;53.75;100714.81;4944508;28;7251;-70
2023/08/24 01:04:14;;;;;;;;;;;;;;;21.37;53.89;100718.28;4942502;28;7142;-71
2023/08/24 01:06:39;;;;;;;;;;;;;;;21.31;54.41;100706.06;4972416;28;7250;-70
2023/08/24 01:09:06;;;;;;;;;;;;;;;21.28;54.39;100711.22;4944000;28;6820;-71
2023/08/24 01:11:46;;;;;;;;;;;;;;;21.24;54.22;100706.88;4959470;28;7286;-71
2023/08/24 01:14:50;;;;;;;;;;;;;;;21.17;54.34;100697.25;4959078;28;7189;-71
2023/08/24 01:17:22;;;;;;;;;;;;;;;21.12;54.83;100702.41;4948166;28;6986;-71
2023/08/24 01:19:49;;;;;;;;;;;;;;;21.08;55.07;100708.47;4958447;28;6800;-70
2023/08/24 01:22:38;;;;;;;;;;;;;;;21.06;55.20;100707.59;4942574;28;7202;-71
2023/08/24 01:25:14;;;;;;;;;;;;;;;21.04;55.05;100706.66;4935242;28;6808;-71
2023/08/24 01:27:40;;;;;;;;;;;;;;;21.01;55.31;100702.31;4972128;28;6829;-70
2023/08/24 01:30:07;;;;;;;;;;;;;;;20.98;55.67;100698.81;4928343;28;7095;-71
2023/08/24 01:32:35;;;;;;;;;;;;;;;20.97;55.33;100684.03;4971718;28;7134;-71
2023/08/24 01:35:06;;;;;;;;;;;;;;;20.96;55.83;100677.94;4943884;28;6876;-71
2023/08/24 01:37:34;;;;;;;;;;;;;;;20.95;55.69;100671.84;4958448;28;6881;-71
2023/08/24 01:40:05;;;;;;;;;;;;;;;20.95;55.59;100681.41;4975992;28;7172;-70
2023/08/24 01:42:36;;;;;;;;;;;;;;;20.93;56.08;100680.53;4957111;28;6816;-71
2023/08/24 01:45:05;;;;;;;;;;;;;;;20.92;55.94;100670.97;4955282;28;6992;-70
2023/08/24 01:47:33;;;;;;;;;;;;;;;20.90;56.02;100668.34;4953998;28;6820;-71
2023/08/24 01:50:00;;;;;;;;;;;;;;;20.87;56.24;100657.00;4963765;28;6807;-70
2023/08/24 01:52:26;;;;;;;;;;;;;;;20.84;56.24;100655.25;4943685;28;6849;-71
2023/08/24 01:54:52;;;;;;;;;;;;;;;20.81;56.47;100652.59;4977195;28;7090;-71
2023/08/24 01:57:17;;;;;;;;;;;;;;;20.82;56.51;100654.38;4976094;28;6942;-71
2023/08/24 01:59:43;;;;;;;;;;;;;;;20.84;56.53;100646.56;4944933;28;8626;-71
2023/08/24 02:02:08;;;;;;;;;;;;;;;20.86;56.42;100661.38;4975367;28;6788;-71
2023/08/24 02:04:33;;;;;;;;;;;;;;;20.90;56.66;100668.34;4957030;28;6791;-70
2023/08/24 02:06:59;;;;;;;;;;;;;;;20.94;56.79;100664.91;4968167;28;6960;-71
2023/08/24 02:09:24;;;;;;;;;;;;;;;21.01;56.96;100667.56;4976896;28;6779;-70
2023/08/24 02:11:50;;;;;;;;;;;;;;;21.06;56.84;100656.31;4959281;28;6848;-71
2023/08/24 02:14:15;;;;;;;;;;;;;;;21.13;56.93;100667.66;4959180;28;6828;-71
2023/08/24 02:16:41;;;;;;;;;;;;;;;21.19;56.81;100662.53;4961236;28;6819;-71
2023/08/24 02:19:06;;;;;;;;;;;;;;;21.23;56.69;100666.88;4961786;28;7133;-71
2023/08/24 02:21:32;;;;;;;;;;;;;;;21.27;56.52;100654.75;4959306;28;6921;-71
2023/08/24 02:23:57;;;;;;;;;;;;;;;21.31;56.52;100659.16;4956585;28;6855;-71
2023/08/24 02:26:23;;;;;;;;;;;;;;;21.36;56.78;100651.34;4963531;28;6852;-71
2023/08/24 02:28:48;;;;;;;;;;;;;;;21.42;56.64;100642.72;4958339;28;6783;-70
2023/08/24 02:31:14;;;;;;;;;;;;;;;21.47;56.46;100641.88;4958739;28;6943;-71
2023/08/24 02:33:39;;;;;;;;;;;;;;;21.54;56.66;100639.31;4976406;28;6963;-71
2023/08/24 02:36:05;;;;;;;;;;;;;;;21.60;56.65;100639.34;4959350;28;7110;-72
2023/08/24 02:38:30;;;;;;;;;;;;;;;21.65;56.62;100642.84;4953001;28;6993;-71
2023/08/24 02:41:07;;;;;;;;;;;;;;;21.72;56.53;100638.56;4933910;28;7169;-71
2023/08/24 02:43:33;;;;;;;;;;;;;;;21.76;56.37;100645.53;4977679;28;7082;-71
2023/08/24 02:46:03;;;;;;;;;;;;;;;21.76;56.40;100654.25;4956198;28;6876;-71
2023/08/24 02:48:29;;;;;;;;;;;;;;;21.76;56.77;100651.66;4955998;28;6991;-71
2023/08/24 02:50:56;;;;;;;;;;;;;;;21.74;56.40;100653.38;4974400;28;7158;-71
2023/08/24 02:53:22;;;;;;;;;;;;;;;21.72;56.08;100649.88;4955936;28;6824;-71
2023/08/24 02:55:48;;;;;;;;;;;;;;;21.71;56.43;100650.72;4961789;28;6835;-71
2023/08/24 02:58:16;;;;;;;;;;;;;;;21.72;56.56;100649.88;4958495;28;6868;-72
2023/08/24 03:00:41;;;;;;;;;;;;;;;21.74;56.38;100647.28;4970381;28;7278;-71
2023/08/24 03:03:07;;;;;;;;;;;;;;;21.77;56.59;100650.78;4958633;28;7164;-70
2023/08/24 03:05:32;;;;;;;;;;;;;;;21.80;56.78;100660.38;4959629;28;6860;-71
2023/08/24 03:07:58;;;;;;;;;;;;;;;21.87;56.74;100679.53;4972765;28;6847;-71
2023/08/24 03:10:24;;;;;;;;;;;;;;;21.90;56.54;100696.06;4944781;28;6998;-70
2023/08/24 03:12:49;;;;;;;;;;;;;;;21.94;56.88;100712.63;4958042;28;7583;-71
2023/08/24 03:15:15;;;;;;;;;;;;;;;21.96;56.77;100708.28;4954018;28;6780;-71
2023/08/24 03:17:41;;;;;;;;;;;;;;;21.98;56.48;100709.16;4960225;28;6822;-71
2023/08/24 03:20:07;;;;;;;;;;;;;;;21.99;56.79;100713.50;4967472;28;6950;-70
2023/08/24 03:22:32;;;;;;;;;;;;;;;22.00;56.44;100711.78;4956607;28;6788;-71
2023/08/24 03:24:58;;;;;;;;;;;;;;;22.02;57.05;100712.66;4951531;28;6776;-71
2023/08/24 03:27:23;;;;;;;;;;;;;;;22.01;56.62;100696.13;4959308;28;6844;-71
2023/08/24 03:29:49;;;;;;;;;;;;;;;22.03;57.00;100696.13;4969489;28;6828;-72
2023/08/24 03:32:14;;;;;;;;;;;;;;;22.04;56.75;100696.16;4961972;28;6852;-71
2023/08/24 03:34:40;;;;;;;;;;;;;;;22.05;57.38;100695.28;4956699;28;6792;-71
2023/08/24 03:37:05;;;;;;;;;;;;;;;22.09;57.44;100684.84;4960490;28;6796;-72
2023/08/24 03:39:32;;;;;;;;;;;;;;;22.10;56.97;100670.94;4943039;28;6950;-71
2023/08/24 03:41:57;;;;;;;;;;;;;;;22.11;57.28;100667.47;4963091;28;6800;-71
2023/08/24 03:44:23;;;;;;;;;;;;;;;22.11;57.83;100670.06;4957298;28;7015;-71
2023/08/24 03:46:48;;;;;;;;;;;;;;;22.12;57.70;100667.47;4954667;28;7318;-71
2023/08/24 03:49:13;;;;;;;;;;;;;;;22.13;58.07;100657.91;4976286;28;6867;-71
2023/08/24 03:51:39;;;;;;;;;;;;;;;22.11;58.01;100646.56;4946770;28;7030;-71
2023/08/24 03:54:05;;;;;;;;;;;;;;;22.09;57.94;100637.88;4934178;28;7211;-71
2023/08/24 03:56:31;;;;;;;;;;;;;;;22.05;58.02;100640.47;4969186;28;7085;-71
2023/08/24 03:58:56;;;;;;;;;;;;;;;22.03;58.70;100634.41;4961798;28;7162;-71
2023/08/24 04:01:22;;;;;;;;;;;;;;;21.99;58.03;100616.09;4958660;28;6852;-71
2023/08/24 04:03:47;;;;;;;;;;;;;;;21.93;58.33;100593.47;4958595;28;7095;-71
2023/08/24 04:06:13;;;;;;;;;;;;;;;21.82;58.75;100566.44;4964013;28;6776;-71
2023/08/24 04:08:39;;;;;;;;;;;;;;;21.71;59.14;100564.66;4963138;28;6791;-71
2023/08/24 04:11:04;;;;;;;;;;;;;;;21.62;59.36;100580.22;4966047;28;6793;-73
2023/08/24 04:13:30;;;;;;;;;;;;;;;21.55;59.50;100583.69;4964957;28;6792;-72
2023/08/24 04:15:55;;;;;;;;;;;;;;;21.50;59.98;100566.28;4942429;28;6979;-75
2023/08/24 04:18:21;;;;;;;;;;;;;;;21.46;60.22;100548.00;4962524;28;6792;-71
2023/08/24 04:20:46;;;;;;;;;;;;;;;21.42;60.41;100535.81;4965622;28;7364;-74
2023/08/24 04:23:13;;;;;;;;;;;;;;;21.37;60.66;100534.03;4965955;28;6834;-72
2023/08/24 04:25:43;;;;;;;;;;;;;;;21.34;60.62;100538.38;4974274;28;6815;-73
2023/08/24 04:28:08;;;;;;;;;;;;;;;21.32;60.70;100546.19;4962480;28;7218;-73
2023/08/24 04:30:34;;;;;;;;;;;;;;;21.34;60.46;100554.00;4959901;28;6782;-72
2023/08/24 04:32:59;;;;;;;;;;;;;;;21.35;60.63;100554.03;4948024;28;7083;-74
2023/08/24 04:35:26;;;;;;;;;;;;;;;21.39;60.96;100549.69;4965059;28;6776;-75
2023/08/24 04:37:52;;;;;;;;;;;;;;;21.43;60.93;100551.44;4959442;28;7240;-74
2023/08/24 04:40:17;;;;;;;;;;;;;;;21.48;60.40;100544.53;4977103;28;7182;-73
2023/08/24 04:42:43;;;;;;;;;;;;;;;21.53;60.90;100548.88;4962034;28;6788;-74
2023/08/24 04:45:09;;;;;;;;;;;;;;;21.55;61.06;100547.19;4976647;28;6826;-72
2023/08/24 04:47:34;;;;;;;;;;;;;;;21.60;60.90;100559.38;4961500;28;7138;-73
2023/08/24 04:50:00;;;;;;;;;;;;;;;21.64;61.07;100548.09;4970626;28;7323;-74
2023/08/24 04:52:26;;;;;;;;;;;;;;;21.70;60.69;100542.06;4960648;28;7227;-72
2023/08/24 04:54:52;;;;;;;;;;;;;;;21.74;60.66;100532.50;4961802;28;7038;-74
2023/08/24 04:57:18;;;;;;;;;;;;;;;21.76;61.07;100533.38;4952004;28;7039;-73
2023/08/24 04:59:44;;;;;;;;;;;;;;;21.78;60.89;100529.91;4963127;28;7549;-75
2023/08/24 05:02:09;;;;;;;;;;;;;;;21.81;60.96;100528.19;4954599;28;7177;-75
2023/08/24 05:04:35;;;;;;;;;;;;;;;21.84;60.79;100529.06;4963243;28;6856;-73
2023/08/24 05:07:00;;;;;;;;;;;;;;;21.90;60.83;100525.59;4957286;28;7220;-74
2023/08/24 05:09:26;;;;;;;;;;;;;;;21.91;60.91;100524.72;4965637;28;7236;-71
2023/08/24 05:11:51;;;;;;;;;;;;;;;21.94;60.91;100527.38;4945818;28;6966;-74
2023/08/24 05:14:17;;;;;;;;;;;;;;;21.97;60.87;100524.75;4939679;28;6949;-74
2023/08/24 05:16:42;;;;;;;;;;;;;;;22.00;60.98;100523.91;4963716;28;6780;-74
2023/08/24 05:19:07;;;;;;;;;;;;;;;22.03;60.98;100519.56;4964017;28;6800;-72
2023/08/24 05:21:33;;;;;;;;;;;;;;;22.03;60.87;100509.13;4971611;28;6776;-72
2023/08/24 05:23:58;;;;;;;;;;;;;;;22.06;60.75;100511.75;4942552;28;6829;-73
2023/08/24 05:26:24;;;;;;;;;;;;;;;22.09;60.72;100516.09;4970974;28;6960;-75
2023/08/24 05:28:52;;;;;;;;;;;;;;;22.11;60.86;100503.03;4961352;28;7111;-74
2023/08/24 05:31:18;;;;;;;;;;;;;;;22.13;61.34;100494.34;4959488;28;7257;-73
2023/08/24 05:33:43;;;;;;;;;;;;;;;22.16;61.07;100498.72;4954800;28;6784;-75
2023/08/24 05:36:09;;;;;;;;;;;;;;;22.18;61.15;100500.47;4956651;28;6792;-73
2023/08/24 05:38:34;;;;;;;;;;;;;;;22.20;61.40;100495.22;4959806;28;6800;-74
2023/08/24 05:40:59;;;;;;;;;;;;;;;22.23;61.08;100497.84;4943472;28;7422;-72
2023/08/24 05:43:25;;;;;;;;;;;;;;;22.24;61.34;100502.22;4970260;28;6950;-72
2023/08/24 05:45:50;;;;;;;;;;;;;;;22.26;60.84;100497.84;4973528;28;7079;-74
2023/08/24 05:48:16;;;;;;;;;;;;;;;22.29;61.43;100502.22;4976480;28;7234;-74
2023/08/24 05:50:48;;;;;;;;;;;;;;;22.30;61.70;100507.41;4959050;28;6784;-72
2023/08/24 05:53:13;;;;;;;;;;;;;;;22.32;61.42;100491.75;4978198;28;7157;-74
2023/08/24 05:55:39;;;;;;;;;;;;;;;22.34;61.21;100487.41;4958110;28;6813;-75
2023/08/24 05:58:05;;;;;;;;;;;;;;;22.37;61.40;100473.50;4961734;28;7284;-74
2023/08/24 06:00:30;;;;;;;;;;;;;;;22.41;61.16;100464.81;4960108;28;6934;-73
2023/08/24 06:02:55;;;;;;;;;;;;;;;22.44;61.32;100467.41;4962314;28;6788;-74
2023/08/24 06:05:21;;;;;;;;;;;;;;;;;;4942555;28;6943;-75
2023/08/24 06:07:47;;;;;;;;;;;;;;;22.51;61.21;100461.34;4962474;28;7232;-74
2023/08/24 06:10:13;;;;;;;;;;;;;;;22.58;61.28;100450.00;4947364;28;7137;-74
2023/08/24 06:12:39;;;;;;;;;;;;;;;22.65;61.57;100445.69;4944567;28;7487;-71
2023/08/24 06:15:05;;;;;;;;;;;;;;;22.73;61.93;100433.44;4943702;28;6936;-71
2023/08/24 06:17:30;;;;;;;;;;;;;;;22.82;61.99;100435.19;4976644;28;6790;-71
2023/08/24 06:19:56;;;;;;;;;;;;;;;22.92;61.78;100436.03;4961029;28;6990;-69
2023/08/24 06:22:21;;;;;;;;;;;;;;;23.02;61.78;100432.50;4960957;28;6807;-69
2023/08/24 06:24:47;;;;;;;;;;;;;;;23.12;61.65;100420.28;4959951;28;6780;-68
2023/08/24 06:27:12;;;;;;;;;;;;;;;23.25;61.68;100425.47;4980642;28;6787;-68
2023/08/24 06:29:38;;;;;;;;;;;;;;;23.36;61.47;100422.84;4978908;28;7045;-69
2023/08/24 06:32:03;;;;;;;;;;;;;;;23.43;61.59;100414.94;4975414;28;6772;-68
2023/08/24 06:34:29;;;;;;;;;;;;;;;23.53;61.61;100412.28;4972453;28;6776;-69
2023/08/24 06:36:55;;;;;;;;;;;;;;;23.62;61.83;100411.38;4960091;28;6918;-68
2023/08/24 06:39:21;;;;;;;;;;;;;;;23.70;61.14;100412.19;4938401;28;6994;-70
2023/08/24 06:41:46;;;;;;;;;;;;;;;23.77;61.38;100403.41;4957330;28;7001;-70
2023/08/24 06:44:12;;;;;;;;;;;;;;;23.86;61.39;100407.75;4949722;28;6987;-70
2023/08/24 06:46:37;;;;;;;;;;;;;;;23.94;61.42;100400.66;4957545;28;6788;-69
2023/08/24 06:49:03;;;;;;;;;;;;;;;24.03;61.09;100401.50;4961252;28;7123;-70
2023/08/24 06:51:29;;;;;;;;;;;;;;;24.13;61.27;100403.19;4958703;28;9907;-70
2023/08/24 06:53:54;;;;;;;;;;;;;;;24.24;61.39;100410.97;4956034;28;7305;-68
2023/08/24 06:56:20;;;;;;;;;;;;;;;24.32;61.23;100410.88;4960514;28;6791;-70
2023/08/24 06:58:47;;;;;;;;;;;;;;;24.44;61.10;100415.16;4960503;28;6788;-71
2023/08/24 07:01:12;;;;;;;;;;;;;;;24.54;61.26;100406.31;4957761;28;6812;-71
2023/08/24 07:03:38;;;;;;;;;;;;;;;24.63;60.86;100400.13;4959460;28;6791;-69
2023/08/24 07:06:07;;;;;;;;;;;;;;;24.73;61.16;100391.28;4977192;28;6780;-70
2023/08/24 07:08:33;;;;;;;;;;;;;;;24.84;60.41;100395.56;4945381;28;6804;-68
2023/08/24 07:10:58;;;;;;;;;;;;;;;24.93;60.40;100393.69;4960497;28;6878;-69
2023/08/24 07:13:24;;;;;;;;;;;;;;;25.02;60.42;100402.34;4973284;28;6776;-69
2023/08/24 07:15:50;;;;;;;;;;;;;;;25.09;60.07;100390.91;4958433;28;7155;-70
2023/08/24 07:18:16;;;;;;;;;;;;;;;25.18;60.22;100388.16;4961293;28;8211;-72
2023/08/24 07:20:42;;;;;;;;;;;;;;;25.28;60.05;100393.28;4975609;28;7208;-69
2023/08/24 07:23:08;;;;;;;;;;;;;;;25.40;60.19;100392.22;4976268;28;6856;-68
2023/08/24 07:25:33;;;;;;;;;;;;;;;25.55;59.93;100391.22;4977333;28;6859;-68
2023/08/24 07:27:59;;;;;;;;;;;;;;;25.69;60.33;100377.84;4960835;28;6768;-68
2023/08/24 07:30:27;;;;;;;;;;;;;;;25.85;59.99;100384.59;4943914;28;8464;-67
2023/08/24 07:32:54;;;;;;;;;;;;;;;26.02;59.78;100380.84;4940042;28;6868;-68
2023/08/24 07:35:20;;;;;;;;;;;;;;;26.16;59.82;100381.47;4943367;28;6792;-69
2023/08/24 07:37:49;;;;;;;;;;;;;;;26.32;59.51;100379.50;4966150;28;6990;-68
2023/08/24 07:40:15;;;;;;;;;;;;;;;26.47;59.04;100398.50;4963938;28;7487;-72
2023/08/24 07:42:50;;;;;;;;;;;;;;;26.60;58.77;100393.88;4965889;28;7253;-70
2023/08/24 07:45:16;;;;;;;;;;;;;;;26.73;58.27;100398.00;4946579;28;6835;-68
2023/08/24 07:47:43;;;;;;;;;;;;;;;26.88;58.09;100396.84;4945664;28;6800;-68
2023/08/24 07:50:09;;;;;;;;;;;;;;;27.01;57.84;100391.38;4941413;28;7001;-68
2023/08/24 07:52:35;;;;;;;;;;;;;;;27.16;57.83;100384.91;4965319;28;7026;-70
2023/08/24 07:55:03;;;;;;;;;;;;;;;27.30;57.35;100393.38;4963671;28;6780;-70
2023/08/24 07:57:29;;;;;;;;;;;;;;;27.49;56.77;100379.78;4981960;28;7216;-71
2023/08/24 07:59:54;;;;;;;;;;;;;;;27.67;56.69;100377.69;4945976;28;6941;-68
2023/08/24 08:02:20;;;;;;;;;;;;;;;27.83;55.99;100372.91;4960003;28;6849;-69
2023/08/24 08:04:46;;;;;;;;;;;;;;;27.99;55.14;100370.75;4966998;28;6817;-69
2023/08/24 08:07:11;;;;;;;;;;;;;;;28.17;55.23;100373.81;4945890;28;8215;-70
2023/08/24 08:09:37;;;;;;;;;;;;;;;28.31;54.52;100369.09;4965075;28;6944;-69
2023/08/24 08:12:03;;;;;;;;;;;;;;;28.47;54.55;100368.66;4946748;28;6944;-69
2023/08/24 08:14:29;;;;;;;;;;;;;;;28.62;53.97;100360.34;4936643;28;7171;-68
2023/08/24 08:16:55;;;;;;;;;;;;;;;28.79;53.31;100353.75;4972071;28;6988;-70
2023/08/24 08:19:21;;;;;;;;;;;;;;;28.93;53.38;100356.00;4964078;28;6812;-68
2023/08/24 08:21:47;;;;;;;;;;;;;;;29.07;52.83;100358.22;4976869;28;6795;-70
2023/08/24 08:24:12;;;;;;;;;;;;;;;29.19;52.44;100357.84;4969524;28;6788;-70
2023/08/24 08:26:38;;;;;;;;;;;;;;;29.35;51.96;100358.25;4963397;28;6827;-69
2023/08/24 08:29:03;;;;;;;;;;;;;;;29.52;52.49;100344.53;4944897;28;7047;-73
2023/08/24 08:31:29;;;;;;;;;;;;;;;29.74;52.06;100348.25;4963475;28;6799;-75
2023/08/24 08:33:54;;;;;;;;;;;;;;;29.95;50.92;100351.97;4959178;28;6967;-74
2023/08/24 08:36:20;;;;;;;;;;;;;;;30.16;50.94;100349.53;4961534;28;6784;-74
2023/08/24 08:38:45;;;;;;;;;;;;;;;30.38;49.67;100347.00;4971359;28;6938;-75
2023/08/24 08:41:12;;;;;;;;;;;;;;;30.58;50.13;100335.69;4974792;28;6828;-74
2023/08/24 08:43:38;;;;;;;;;;;;;;;30.82;49.66;100338.38;4946411;28;7223;-75
2023/08/24 08:46:03;;;;;;;;;;;;;;;31.01;48.73;100327.09;4978159;28;6803;-74
2023/08/24 08:48:32;;;;;;;;;;;;;;;31.22;48.75;100313.94;4979313;28;7112;-75
2023/08/24 08:50:59;;;;;;;;;;;;;;;31.42;48.09;100294.59;4956109;28;7171;-74
2023/08/24 08:53:24;;;;;;;;;;;;;;;31.59;47.56;100291.28;4959157;28;7531;-74
2023/08/24 08:55:55;;;;;;;;;;;;;;;31.75;46.36;100290.63;4960193;28;7373;-75
2023/08/24 08:58:21;;;;;;;;;;;;;;;31.88;46.13;100283.03;4958071;28;7511;-75
2023/08/24 09:00:47;;;;;;;;;;;;;;;32.04;46.20;100272.63;4946978;28;6986;-74
2023/08/24 09:03:14;;;;;;;;;;;;;;;32.18;45.57;100266.72;4962010;28;6826;-72
2023/08/24 09:05:40;;;;;;;;;;;;;;;32.30;45.38;100268.81;4960607;28;6888;-76
2023/08/24 09:08:06;;;;;;;;;;;;;;;32.44;44.61;100262.06;4942387;28;7080;-74
2023/08/24 09:10:31;;;;;;;;;;;;;;;32.62;44.50;100255.91;4980651;28;7350;-72
2023/08/24 09:12:57;;;;;;;;;;;;;;;32.78;43.06;100249.84;4943852;28;6987;-74
2023/08/24 09:15:27;;;;;;;;;;;;;;;32.89;42.94;100244.91;4970646;28;6971;-72
2023/08/24 09:17:55;;;;;;;;;;;;;;;33.00;42.86;100240.91;4942186;28;7219;-72
2023/08/24 09:20:20;;;;;;;;;;;;;;;33.11;42.06;100236.78;4963059;28;7218;-75
2023/08/24 09:22:46;;;;;;;;;;;;;;;33.20;41.57;100235.47;4947432;28;6780;-74
2023/08/24 09:25:11;;;;;;;;;;;;;;;33.35;40.96;100239.16;4978914;28;6971;-74
2023/08/24 09:27:37;;;;;;;;;;;;;;;33.54;40.74;100240.91;4947126;28;7162;-74
2023/08/24 09:30:03;;;;;;;;;;;;;;;33.74;40.51;100242.53;4963436;28;6998;-75
2023/08/24 09:32:31;;;;;;;;;;;;;;;33.98;39.47;100259.91;4963301;28;7133;-74
2023/08/24 09:35:04;;;;;;;;;;;;;;;34.17;39.36;100260.69;4943708;28;8505;-73
2023/08/24 09:37:36;;;;;;;;;;;;;;;34.42;39.25;100269.13;4976405;28;6819;-72
2023/08/24 09:40:07;;;;;;;;;;;;;;;34.66;38.73;100280.25;4964442;28;6983;-73
2023/08/24 09:42:41;;;;;;;;;;;;;;;34.93;38.07;100273.50;4943540;28;6997;-73
2023/08/24 09:45:10;;;;;;;;;;;;;;;35.23;37.97;100281.53;4952871;28;7002;-73
2023/08/24 09:47:36;;;;;;;;;;;;;;;35.52;37.31;100271.00;4959785;28;8544;-71
2023/08/24 09:50:02;;;;;;;;;;;;;;;35.70;36.57;100268.22;4976047;28;6804;-72
2023/08/24 09:52:32;;;;;;;;;;;;;;;35.74;36.36;100261.75;4959371;28;6816;-73
2023/08/24 09:55:04;;;;;;;;;;;;;;;35.70;36.49;100255.75;4944132;28;6808;-73
2023/08/24 09:57:33;;;;;;;;;;;;;;;35.66;36.72;100269.34;4945186;28;6856;-71
2023/08/24 09:59:58;;;;;;;;;;;;;;;35.59;36.71;100263.53;4942170;28;7087;-74
2023/08/24 10:02:29;;;;;;;;;;;;;;;35.53;36.51;100278.03;4950655;28;6855;-74
2023/08/24 10:04:56;;;;;;;;;;;;;;;35.49;36.41;100279.16;4975031;28;6875;-73
2023/08/24 10:07:25;;;;;;;;;;;;;;;35.43;36.59;100287.50;4974691;28;6875;-73
2023/08/24 10:10:03;;;;;;;;;;;;;;;35.33;36.02;100297.88;4962019;28;7151;-72
2023/08/24 10:12:32;;;;;;;;;;;;;;;35.28;36.86;100295.47;4960966;28;6808;-73
2023/08/24 10:15:10;;;;;;;;;;;;;;;35.28;36.96;100298.13;4963957;28;6812;-72
2023/08/24 10:17:36;;;;;;;;;;;;;;;35.29;36.80;100285.66;4975544;28;6816;-73
2023/08/24 10:20:05;;;;;;;;;;;;;;;35.30;36.44;100292.72;4961764;28;6852;-74
2023/08/24 10:22:31;;;;;;;;;;;;;;;35.33;36.54;100297.00;4976138;28;6800;-73
2023/08/24 10:24:58;;;;;;;;;;;;;;;35.37;37.89;100301.22;4946176;28;7245;-72
2023/08/24 10:27:24;;;;;;;;;;;;;;;35.41;36.93;100298.28;4957612;28;6981;-73
2023/08/24 10:29:49;;;;;;;;;;;;;;;35.45;37.24;100288.31;4966277;28;7828;-74
2023/08/24 10:32:15;;;;;;;;;;;;;;;35.47;37.27;100281.06;4941575;28;7200;-71
2023/08/24 10:34:41;;;;;;;;;;;;;;;35.44;37.14;100289.22;4959696;28;6840;-70
2023/08/24 10:37:10;;;;;;;;;;;;;;;35.36;37.37;100291.50;4940524;28;6946;-70
2023/08/24 10:39:38;;;;;;;;;;;;;;;35.23;37.54;100294.03;4953962;28;6982;-71
2023/08/24 10:42:04;;;;;;;;;;;;;;;35.11;37.22;100292.91;4971936;28;7536;-71
2023/08/24 10:44:39;;;;;;;;;;;;;;;34.98;37.39;100300.69;4940531;28;7042;-70
2023/08/24 10:47:14;;;;;;;;;;;;;;;34.83;37.71;100321.06;4942217;28;7252;-70
2023/08/24 10:49:41;;;;;;;;;;;;;;;34.66;37.10;100333.47;4943967;28;6904;-70
2023/08/24 10:52:23;;;;;;;;;;;;;;;34.47;38.15;100339.75;4962758;28;7332;-70
2023/08/24 10:54:50;;;;;;;;;;;;;;;34.29;38.17;100348.75;4974546;28;7068;-70
2023/08/24 10:57:29;;;;;;;;;;;;;;;34.07;38.72;100364.00;4960773;28;7056;-70
2023/08/24 11:00:13;;;;;;;;;;;;;;;33.76;38.08;100368.22;4961108;28;7112;-70
2023/08/24 11:02:46;;;;;;;;;;;;;;;33.48;38.22;100384.63;4955755;28;11532;-70
2023/08/24 11:05:24;;;;;;;;;;;;;;;33.15;38.73;100398.56;4944823;28;7007;-71
2023/08/24 11:07:59;;;;;;;;;;;;;;;32.80;39.13;100408.03;4959881;28;7010;-70
2023/08/24 11:10:46;;;;;;;;;;;;;;;32.49;39.72;100403.25;4963308;28;6990;-71
2023/08/24 11:13:16;;;;;;;;;;;;;;;32.19;40.07;100404.50;4965587;28;7001;-70
2023/08/24 11:15:47;;;;;;;;;;;;;;;31.93;40.56;100405.59;4976453;28;6865;-70
2023/08/24 11:18:13;;;;;;;;;;;;;;;31.70;40.97;100413.53;4962454;28;6864;-71
2023/08/24 11:20:47;;;;;;;;;;;;;;;31.51;41.71;100431.09;4963058;28;6808;-70
2023/08/24 11:23:15;;;;;;;;;;;;;;;31.32;42.23;100429.16;4964459;28;6985;-71
2023/08/24 11:25:41;;;;;;;;;;;;;;;31.14;42.80;100433.31;4963077;28;7014;-70
2023/08/24 11:28:06;;;;;;;;;;;;;;;30.96;42.79;100419.00;4964210;28;6780;-70
2023/08/24 11:30:33;;;;;;;;;;;;;;;30.72;43.63;100422.47;4964614;28;6796;-70
2023/08/24 11:32:59;;;;;;;;;;;;;;;30.49;43.97;100420.63;4947386;28;7214;-70
2023/08/24 11:35:25;;;;;;;;;;;;;;;30.15;44.53;100419.16;4947653;28;7042;-70
2023/08/24 11:37:55;;;;;;;;;;;;;;;29.67;45.89;100429.47;4963862;28;6979;-70
2023/08/24 11:40:26;;;;;;;;;;;;;;;29.22;47.40;100436.91;4965491;28;7087;-71
2023/08/24 11:42:58;;;;;;;;;;;;;;;28.79;48.19;100419.66;4940993;28;7029;-69
2023/08/24 11:45:24;;;;;;;;;;;;;;;28.37;49.04;100397.91;4965906;28;7160;-70
2023/08/24 11:47:50;;;;;;;;;;;;;;;28.01;50.92;100403.19;4948691;28;6799;-71
2023/08/24 11:50:17;;;;;;;;;;;;;;;27.73;51.69;100381.03;4963834;28;7079;-70
2023/08/24 11:52:43;;;;;;;;;;;;;;;27.50;53.02;100383.31;4965718;28;6867;-70
2023/08/24 11:55:09;;;;;;;;;;;;;;;27.31;53.36;100387.19;4962396;28;6964;-71
2023/08/24 11:57:35;;;;;;;;;;;;;;;27.16;54.28;100398.06;4950554;28;7167;-71
2023/08/24 12:00:02;;;;;;;;;;;;;;;27.07;55.08;100382.47;4967940;28;6812;-70
2023/08/24 12:02:28;;;;;;;;;;;;;;;27.00;55.51;100360.72;4961693;28;6879;-70
2023/08/24 12:04:53;;;;;;;;;;;;;;;26.97;56.29;100324.81;4978806;28;7150;-71
2023/08/24 12:07:20;;;;;;;;;;;;;;;26.98;56.87;100309.91;4967112;28;6776;-70
2023/08/24 12:09:46;;;;;;;;;;;;;;;26.96;57.17;100281.03;4948650;28;6985;-70
2023/08/24 12:12:16;;;;;;;;;;;;;;;26.94;57.70;100248.63;4977086;28;6848;-70
2023/08/24 12:14:42;;;;;;;;;;;;;;;26.96;57.99;100244.22;4950234;28;8549;-71
2023/08/24 12:17:09;;;;;;;;;;;;;;;27.02;58.40;100233.53;4942828;28;7057;-71
2023/08/24 12:19:34;;;;;;;;;;;;;;;27.11;58.46;100237.72;4951361;28;7293;-70
2023/08/24 12:22:00;;;;;;;;;;;;;;;27.22;58.57;100234.81;4981908;28;6991;-69
2023/08/24 12:24:25;;;;;;;;;;;;;;;27.28;58.11;100218.91;4969390;28;6788;-71
2023/08/24 12:26:59;;;;;;;;;;;;;;;27.37;57.88;100206.44;4978247;28;6988;-70
2023/08/24 12:29:24;;;;;;;;;;;;;;;27.42;58.04;100188.75;4951089;28;7030;-69
2023/08/24 12:31:50;;;;;;;;;;;;;;;27.45;57.50;100178.16;4963944;28;8147;-70
2023/08/24 12:34:16;;;;;;;;;;;;;;;27.45;57.69;100173.75;4968189;28;7112;-69
2023/08/24 12:36:43;;;;;;;;;;;;;;;27.47;57.23;100189.50;4982003;28;6860;-71
2023/08/24 12:39:12;;;;;;;;;;;;;;;27.47;57.52;100181.63;4983076;28;7159;-70
2023/08/24 12:41:38;;;;;;;;;;;;;;;27.43;57.25;100174.72;4946109;28;7004;-70
2023/08/24 12:44:07;;;;;;;;;;;;;;;27.40;57.33;100193.19;4965064;28;6838;-71
2023/08/24 12:46:37;;;;;;;;;;;;;;;27.38;57.45;100210.78;4954434;28;7080;-71